Time;durP1;ratioP1;P1;durP2;ratioP2;P2;SDS_P1;SDS_P2;PMS_P1;PMS_P2;Temp;Humidity;BMP_temperature;BMP_pressure;BME280_temperature;BME280_humidity;BME280_pressure;Samples;Min_cycle;Max_cycle;Signal;HPM_P1;HPM_P2
2022/06/05 00:00:47;;;;;;;6.17;3.47;;;11.90;99.90;;;;;;5003684;28;20215;-83
2022/06/05 00:03:40;;;;;;;6.10;3.63;;;11.90;99.90;;;;;;5004694;28;20300;-84
2022/06/05 00:06:13;;;;;;;10.87;3.10;;;11.90;99.90;;;;;;5003082;28;20287;-84
2022/06/05 00:08:55;;;;;;;6.23;3.30;;;11.90;99.90;;;;;;5003835;28;20219;-83
2022/06/05 00:11:21;;;;;;;11.93;3.80;;;11.90;99.90;;;;;;5004808;28;20215;-84
2022/06/05 00:13:51;;;;;;;5.77;3.40;;;12.00;99.90;;;;;;5004183;28;20525;-84
2022/06/05 00:16:21;;;;;;;10.27;5.10;;;12.00;99.90;;;;;;5003498;28;20256;-82
2022/06/05 00:18:47;;;;;;;4.67;2.90;;;12.00;99.90;;;;;;5004441;28;20219;-84
2022/06/05 00:21:14;;;;;;;6.33;3.50;;;12.10;99.90;;;;;;4986483;28;20226;-85
2022/06/05 00:23:40;;;;;;;6.97;2.67;;;12.10;99.90;;;;;;5004423;28;20215;-85
2022/06/05 00:26:09;;;;;;;5.23;2.87;;;12.10;99.90;;;;;;5004235;28;20180;-85
2022/06/05 00:28:53;;;;;;;5.03;2.93;;;12.10;99.90;;;;;;5003510;28;20202;-84
2022/06/05 00:31:22;;;;;;;7.30;3.93;;;12.10;99.90;;;;;;5002982;28;20682;-83
2022/06/05 00:33:48;;;;;;;7.27;2.73;;;12.10;99.90;;;;;;5003981;28;20212;-88
2022/06/05 00:36:36;;;;;;;7.40;3.30;;;12.10;99.90;;;;;;5003303;28;20253;-83
2022/06/05 00:39:11;;;;;;;4.30;2.70;;;12.10;99.90;;;;;;4975472;28;20223;-84
2022/06/05 00:41:43;;;;;;;4.30;2.97;;;12.20;99.90;;;;;;5004050;28;20210;-83
2022/06/05 00:44:11;;;;;;;12.73;3.43;;;12.20;99.90;;;;;;5002694;28;20191;-83
2022/06/05 00:46:38;;;;;;;4.40;2.27;;;12.20;99.90;;;;;;5003051;28;20512;-83
2022/06/05 00:49:06;;;;;;;4.53;2.27;;;12.20;99.90;;;;;;5003715;28;20825;-86
2022/06/05 00:51:32;;;;;;;3.13;2.37;;;12.20;99.90;;;;;;5002528;28;20344;-85
2022/06/05 00:53:58;;;;;;;5.37;2.23;;;12.20;99.90;;;;;;5002912;28;20675;-85
2022/06/05 00:56:24;;;;;;;3.37;2.40;;;12.30;99.90;;;;;;4986368;28;20265;-85
2022/06/05 00:58:52;;;;;;;4.47;2.30;;;12.30;99.90;;;;;;4971043;28;20202;-82
2022/06/05 01:01:18;;;;;;;3.87;2.80;;;12.30;99.90;;;;;;5024066;28;20245;-83
2022/06/05 01:03:44;;;;;;;5.80;3.23;;;12.30;99.90;;;;;;5023768;28;20718;-84
2022/06/05 01:06:09;;;;;;;3.67;2.63;;;12.30;99.90;;;;;;5022147;28;20214;-84
2022/06/05 01:08:35;;;;;;;3.37;2.90;;;12.30;99.90;;;;;;4989572;28;20206;-83
2022/06/05 01:11:22;;;;;;;3.67;2.70;;;12.30;99.90;;;;;;5021847;28;20576;-84
2022/06/05 01:14:10;;;;;;;6.10;4.83;;;12.30;99.90;;;;;;5022730;28;20183;-85
2022/06/05 01:16:55;;;;;;;3.43;2.80;;;12.30;99.90;;;;;;5038756;28;20214;-85
2022/06/05 01:19:40;;;;;;;5.17;3.00;;;12.30;99.90;;;;;;5023323;28;20213;-84
2022/06/05 01:22:43;;;;;;;7.47;3.40;;;12.30;99.90;;;;;;5022023;28;20218;-84
2022/06/05 01:25:38;;;;;;;8.77;3.40;;;12.30;99.90;;;;;;5023018;28;20357;-85
2022/06/05 01:28:21;;;;;;;3.23;2.60;;;12.30;99.90;;;;;;5009600;28;20275;-84
2022/06/05 01:30:52;;;;;;;7.53;2.33;;;12.30;99.90;;;;;;5023600;28;20210;-85
2022/06/05 01:33:26;;;;;;;3.43;2.87;;;12.30;99.90;;;;;;5022210;28;20614;-84
2022/06/05 01:36:12;;;;;;;6.73;3.37;;;12.30;99.90;;;;;;5038298;28;20690;-82
2022/06/05 01:38:41;;;;;;;3.03;2.37;;;12.30;99.90;;;;;;5038384;28;20585;-85
2022/06/05 01:41:30;;;;;;;4.63;3.30;;;12.40;99.90;;;;;;5023217;28;20698;-84
2022/06/05 01:43:59;;;;;;;5.27;3.47;;;12.30;99.90;;;;;;5021970;28;20199;-83
2022/06/05 01:46:34;;;;;;;10.03;3.47;;;12.30;99.90;;;;;;5023493;28;20183;-85
2022/06/05 01:49:09;;;;;;;7.30;3.80;;;12.30;99.90;;;;;;5038403;28;20214;-86
2022/06/05 01:51:43;;;;;;;5.67;2.73;;;12.30;99.90;;;;;;5023356;28;20245;-83
2022/06/05 01:54:15;;;;;;;5.13;3.03;;;12.30;99.90;;;;;;5022030;28;20558;-83
2022/06/05 01:56:45;;;;;;;4.80;2.97;;;12.30;99.90;;;;;;5023488;28;20218;-91
2022/06/05 01:59:35;;;;;;;6.50;2.20;;;12.30;99.90;;;;;;5028788;28;20232;-91
2022/06/05 02:02:04;;;;;;;2.27;1.67;;;12.30;99.90;;;;;;5031757;28;20190;-90
2022/06/05 02:04:54;;;;;;;3.00;2.10;;;12.30;99.90;;;;;;5032469;28;20175;-93
2022/06/05 02:07:24;;;;;;;2.73;2.10;;;12.30;99.90;;;;;;5032143;28;20202;-92
2022/06/05 02:09:55;;;;;;;7.07;2.57;;;12.30;99.90;;;;;;5031769;28;20264;-91
2022/06/05 02:12:22;;;;;;;7.30;3.70;;;12.30;99.90;;;;;;5031788;28;20215;-90
2022/06/05 02:14:48;;;;;;;6.23;3.63;;;12.30;99.90;;;;;;5015045;28;20260;-91
2022/06/05 02:17:14;;;;;;;3.23;2.67;;;12.30;99.90;;;;;;5030281;28;20733;-93
2022/06/05 02:19:41;;;;;;;6.57;3.10;;;12.30;99.90;;;;;;5015737;28;20199;-91
2022/06/05 02:22:21;;;;;;;6.20;3.23;;;12.30;99.90;;;;;;5014830;28;20785;-91
2022/06/05 02:24:47;;;;;;;9.00;3.97;;;12.40;99.90;;;;;;5031331;28;20254;-92
2022/06/05 02:27:13;;;;;;;8.43;3.20;;;12.40;99.90;;;;;;5030929;28;20245;-91
2022/06/05 02:29:39;;;;;;;3.77;2.87;;;12.40;99.90;;;;;;4998858;28;20210;-93
2022/06/05 02:32:14;;;;;;;2.87;2.63;;;12.40;99.90;;;;;;5030874;28;20179;-92
2022/06/05 02:35:05;;;;;;;4.97;2.83;;;12.50;99.90;;;;;;5031901;28;20174;-90
2022/06/05 02:37:47;;;;;;;4.50;3.27;;;12.50;99.90;;;;;;5031279;28;20241;-91
2022/06/05 02:40:46;;;;;;;8.93;3.53;;;12.50;99.90;;;;;;5031145;28;20211;-88
2022/06/05 02:43:25;;;;;;;5.77;3.83;;;12.50;99.90;;;;;;5031254;28;20675;-90
2022/06/05 02:46:20;;;;;;;6.97;4.40;;;12.50;99.90;;;;;;5030698;28;20569;-91
2022/06/05 02:48:55;;;;;;;12.83;4.33;;;12.50;99.90;;;;;;5030967;28;20814;-91
2022/06/05 02:51:29;;;;;;;4.43;3.23;;;12.50;99.90;;;;;;5030592;28;20260;-92
2022/06/05 02:53:58;;;;;;;5.83;2.97;;;12.50;99.90;;;;;;5029740;28;20210;-89
2022/06/05 02:56:26;;;;;;;17.67;4.40;;;12.60;99.90;;;;;;5030408;28;20221;-90
2022/06/05 02:58:54;;;;;;;5.20;3.20;;;12.60;99.90;;;;;;5031311;28;20628;-91
2022/06/05 03:04:08;;;;;;;8.50;3.73;;;12.60;99.90;;;;;;5030719;28;20222;-89
2022/06/05 03:06:35;;;;;;;5.87;3.67;;;12.60;99.90;;;;;;5014805;28;20207;-91
2022/06/05 03:09:01;;;;;;;7.17;3.90;;;12.60;99.90;;;;;;5014264;28;20210;-93
2022/06/05 03:11:27;;;;;;;9.80;4.43;;;12.60;99.90;;;;;;5014140;28;20600;-92
2022/06/05 03:13:53;;;;;;;6.67;4.00;;;12.70;99.90;;;;;;5014142;28;20181;-92
2022/06/05 03:16:18;;;;;;;6.53;4.03;;;12.70;99.90;;;;;;5014487;28;20182;-91
2022/06/05 03:18:44;;;;;;;7.03;4.27;;;12.70;99.90;;;;;;5014232;28;20277;-91
2022/06/05 03:21:10;;;;;;;8.13;4.13;;;12.70;99.90;;;;;;5014289;28;20566;-91
2022/06/05 03:23:36;;;;;;;5.87;3.73;;;12.70;99.90;;;;;;5014176;28;20682;-91
2022/06/05 03:26:02;;;;;;;9.33;4.43;;;12.70;99.90;;;;;;5013844;28;20205;-92
2022/06/05 03:28:28;;;;;;;5.97;4.70;;;12.70;99.90;;;;;;5031037;28;20179;-92
2022/06/05 03:30:53;;;;;;;9.47;4.10;;;12.80;99.90;;;;;;5013784;28;20276;-91
2022/06/05 03:33:19;;;;;;;6.30;3.43;;;12.80;99.90;;;;;;4997337;28;20269;-93
2022/06/05 03:35:46;;;;;;;10.93;5.53;;;12.80;99.90;;;;;;5013822;28;20210;-92
2022/06/05 03:38:13;;;;;;;4.40;2.50;;;12.80;99.90;;;;;;5029522;28;20238;-90
2022/06/05 03:40:41;;;;;;;7.30;4.33;;;12.90;99.90;;;;;;5030157;28;20271;-91
2022/06/05 03:43:07;;;;;;;8.13;3.60;;;12.90;99.90;;;;;;5013662;28;20221;-92
2022/06/05 03:45:33;;;;;;;7.63;3.77;;;12.90;99.90;;;;;;5029956;28;20218;-90
2022/06/05 03:47:58;;;;;;;12.60;4.33;;;12.90;99.90;;;;;;4996578;28;20214;-92
2022/06/05 03:50:24;;;;;;;6.53;3.17;;;13.00;99.90;;;;;;4997059;28;20226;-90
2022/06/05 03:52:50;;;;;;;12.43;4.23;;;13.10;99.90;;;;;;4997505;28;20179;-92
2022/06/05 03:55:19;;;;;;;9.90;5.53;;;13.10;99.90;;;;;;4997238;28;20297;-90
2022/06/05 03:57:46;;;;;;;10.17;4.67;;;13.10;99.90;;;;;;5013115;28;20219;-91
2022/06/05 04:00:14;;;;;;;10.63;4.87;;;13.10;99.90;;;;;;5013403;28;20476;-92
2022/06/05 04:02:40;;;;;;;10.20;4.83;;;13.20;99.90;;;;;;5013028;28;20238;-90
2022/06/05 04:05:08;;;;;;;7.80;3.77;;;13.10;99.90;;;;;;5013098;28;20268;-94
2022/06/05 04:07:34;;;;;;;14.17;4.60;;;13.20;99.90;;;;;;5031070;28;20620;-92
2022/06/05 04:10:00;;;;;;;7.77;4.60;;;13.20;99.90;;;;;;5013100;28;20253;-92
2022/06/05 04:12:26;;;;;;;8.83;4.70;;;13.20;99.90;;;;;;5012499;28;20299;-92
2022/06/05 04:14:52;;;;;;;8.57;3.73;;;13.30;99.90;;;;;;5012792;28;20211;-93
2022/06/05 04:17:18;;;;;;;10.40;4.93;;;13.30;99.90;;;;;;4996619;28;20223;-92
2022/06/05 04:19:44;;;;;;;6.23;4.10;;;13.30;99.90;;;;;;5029731;28;20599;-90
2022/06/05 04:22:09;;;;;;;4.37;2.93;;;13.30;99.90;;;;;;4995875;28;20666;-90
2022/06/05 04:24:36;;;;;;;8.33;3.77;;;13.30;99.90;;;;;;4996376;28;20222;-92
2022/06/05 04:27:02;;;;;;;10.83;3.17;;;13.40;99.90;;;;;;5029125;28;20211;-92
2022/06/05 04:29:28;;;;;;;7.70;3.70;;;13.40;99.90;;;;;;5028949;28;20211;-90
2022/06/05 04:31:54;;;;;;;13.37;3.70;;;13.50;99.90;;;;;;4996488;28;20229;-92
2022/06/05 04:34:22;;;;;;;4.97;3.23;;;13.60;99.90;;;;;;5013208;28;20627;-91
2022/06/05 04:36:48;;;;;;;9.53;5.00;;;13.50;99.90;;;;;;5029015;28;20222;-93
2022/06/05 04:39:15;;;;;;;3.97;3.37;;;13.60;99.90;;;;;;5012476;28;20227;-92
2022/06/05 04:41:41;;;;;;;12.37;4.70;;;13.60;99.90;;;;;;5006535;28;20308;-92
2022/06/05 04:44:10;;;;;;;7.30;3.67;;;13.70;99.90;;;;;;5012545;28;20179;-90
2022/06/05 04:46:36;;;;;;;7.03;4.83;;;13.70;99.90;;;;;;5030406;28;20265;-93
2022/06/05 04:49:03;;;;;;;5.73;3.63;;;13.80;99.90;;;;;;5012252;28;20738;-90
2022/06/05 04:51:29;;;;;;;3.13;2.83;;;13.80;99.90;;;;;;5028889;28;20218;-91
2022/06/05 04:53:56;;;;;;;6.27;3.07;;;13.80;99.90;;;;;;5029641;28;20222;-90
2022/06/05 04:56:24;;;;;;;13.53;3.73;;;13.80;99.90;;;;;;5012013;28;20540;-95
2022/06/05 04:58:50;;;;;;;7.07;3.07;;;13.90;99.90;;;;;;5029491;28;20710;-90
2022/06/05 05:01:22;;;;;;;11.63;3.37;;;13.90;99.90;;;;;;4996059;28;20214;-91
2022/06/05 05:03:52;;;;;;;6.00;2.83;;;13.90;99.90;;;;;;5029576;28;20210;-89
2022/06/05 05:06:18;;;;;;;7.63;3.83;;;14.00;99.90;;;;;;5028327;28;20275;-90
2022/06/05 05:08:43;;;;;;;6.70;4.13;;;14.00;99.90;;;;;;4995360;28;20210;-89
2022/06/05 05:11:09;;;;;;;5.80;2.87;;;14.10;99.90;;;;;;4995601;28;20269;-91
2022/06/05 05:13:35;;;;;;;6.63;3.83;;;14.10;99.90;;;;;;5028566;28;20543;-90
2022/06/05 05:16:02;;;;;;;7.23;3.67;;;14.20;99.90;;;;;;5029331;28;20214;-90
2022/06/05 05:18:27;;;;;;;8.90;4.00;;;14.20;99.90;;;;;;5028213;28;20218;-94
2022/06/05 05:20:53;;;;;;;9.00;3.27;;;14.20;99.90;;;;;;5012247;28;20566;-93
2022/06/05 05:23:20;;;;;;;7.27;4.33;;;14.30;99.90;;;;;;5028497;28;20210;-94
2022/06/05 05:25:47;;;;;;;5.00;2.97;;;14.40;99.90;;;;;;4996653;28;20270;-90
2022/06/05 05:28:13;;;;;;;6.97;3.30;;;14.50;99.90;;;;;;5028071;28;20222;-94
2022/06/05 05:30:44;;;;;;;7.10;3.40;;;14.60;99.90;;;;;;5027905;28;20597;-92
2022/06/05 05:33:10;;;;;;;5.67;3.17;;;14.80;99.90;;;;;;5027931;28;20567;-91
2022/06/05 05:35:36;;;;;;;8.87;4.03;;;15.50;99.90;;;;;;4998512;28;20206;-89
2022/06/05 05:38:01;;;;;;;8.20;3.50;;;16.00;99.90;;;;;;5015616;28;20733;-91
2022/06/05 05:43:11;;;;;;;7.40;4.20;;;16.40;99.90;;;;;;5032179;28;20416;-92
2022/06/05 05:45:37;;;;;;;4.03;3.30;;;16.80;99.90;;;;;;5015462;28;20215;-91
2022/06/05 05:48:03;;;;;;;4.37;3.33;;;16.90;99.90;;;;;;5031996;28;20740;-91
2022/06/05 05:50:28;;;;;;;7.07;3.90;;;17.20;99.90;;;;;;5032156;28;20214;-92
2022/06/05 05:52:54;;;;;;;7.70;3.80;;;17.40;99.90;;;;;;5014791;28;20183;-94
2022/06/05 05:55:20;;;;;;;7.30;3.33;;;17.20;99.90;;;;;;5015776;28;20182;-91
2022/06/05 05:57:48;;;;;;;4.43;3.77;;;16.80;99.90;;;;;;5015455;28;20252;-92
2022/06/05 06:00:16;;;;;;;5.43;4.00;;;16.20;99.90;;;;;;5032971;28;20214;-94
2022/06/05 06:02:43;;;;;;;7.30;3.30;;;15.90;99.90;;;;;;5032028;28;20218;-91
2022/06/05 06:05:14;;;;;;;6.33;3.53;;;15.80;99.90;;;;;;5031978;28;20641;-93
2022/06/05 06:07:40;;;;;;;6.67;3.13;;;15.90;99.90;;;;;;5016762;28;20175;-90
2022/06/05 06:10:07;;;;;;;5.77;4.00;;;15.90;99.90;;;;;;5015608;28;20567;-90
2022/06/05 06:12:33;;;;;;;7.40;4.17;;;15.80;99.90;;;;;;5015308;28;20404;-90
2022/06/05 06:14:59;;;;;;;5.00;3.67;;;15.80;99.90;;;;;;4998559;28;20210;-90
2022/06/05 06:17:24;;;;;;;5.83;3.60;;;15.80;99.90;;;;;;5013966;28;20219;-91
2022/06/05 06:19:50;;;;;;;14.33;5.47;;;16.00;99.90;;;;;;5016090;28;20179;-93
2022/06/05 06:22:17;;;;;;;9.10;3.40;;;16.10;99.90;;;;;;5015237;28;20272;-91
2022/06/05 06:24:43;;;;;;;3.90;2.93;;;16.00;99.90;;;;;;5031753;28;20221;-92
2022/06/05 06:27:09;;;;;;;9.53;4.37;;;16.10;99.90;;;;;;5015075;28;20389;-89
2022/06/05 06:29:35;;;;;;;9.57;4.77;;;16.30;99.90;;;;;;4998828;28;20223;-93
2022/06/05 06:32:01;;;;;;;10.80;4.43;;;16.50;99.90;;;;;;4998647;28;20205;-91
2022/06/05 06:34:27;;;;;;;7.47;4.27;;;16.80;99.90;;;;;;5031779;28;20167;-90
2022/06/05 06:36:53;;;;;;;10.43;5.00;;;16.80;99.90;;;;;;4999156;28;20234;-92
2022/06/05 06:39:20;;;;;;;7.23;4.50;;;16.80;99.90;;;;;;5014186;28;20284;-93
2022/06/05 06:41:46;;;;;;;13.37;3.53;;;16.90;99.90;;;;;;5030036;28;20206;-92
2022/06/05 06:44:13;;;;;;;7.70;3.93;;;16.60;99.90;;;;;;5030828;28;20210;-93
2022/06/05 06:46:39;;;;;;;7.20;3.90;;;16.60;99.90;;;;;;5030879;28;20170;-91
2022/06/05 06:49:05;;;;;;;9.43;4.53;;;16.70;99.90;;;;;;5029590;28;20234;-92
2022/06/05 06:51:31;;;;;;;10.70;3.87;;;16.60;99.90;;;;;;4998117;28;20245;-94
2022/06/05 06:53:57;;;;;;;5.13;2.47;;;16.40;99.90;;;;;;5014309;28;20210;-92
2022/06/05 06:56:26;;;;;;;7.13;3.93;;;16.40;99.90;;;;;;5013119;28;20206;-90
2022/06/05 06:58:52;;;;;;;8.73;3.27;;;16.40;99.90;;;;;;5030821;28;20233;-91
2022/06/05 07:01:18;;;;;;;11.90;4.07;;;16.40;99.90;;;;;;5014001;28;20221;-91
2022/06/05 07:03:44;;;;;;;5.10;4.00;;;16.40;99.90;;;;;;5015031;28;20659;-95
2022/06/05 07:06:12;;;;;;;5.83;3.97;;;16.40;99.90;;;;;;5015205;28;20218;-96
2022/06/05 07:08:38;;;;;;;9.07;3.93;;;16.40;99.90;;;;;;5030368;28;20574;-96
2022/06/05 07:11:08;;;;;;;10.27;4.53;;;16.60;99.90;;;;;;5015049;28;20178;-96
2022/06/05 07:13:35;;;;;;;14.13;3.60;;;16.60;99.90;;;;;;5032366;28;20174;-94
2022/06/05 07:16:01;;;;;;;10.30;4.27;;;16.60;99.90;;;;;;5013971;28;20238;-96
2022/06/05 07:18:27;;;;;;;8.97;4.40;;;16.70;99.90;;;;;;5013998;28;20229;-96
2022/06/05 07:20:53;;;;;;;10.40;4.40;;;16.70;99.90;;;;;;5030137;28;20361;-94
2022/06/05 07:23:19;;;;;;;11.37;4.30;;;16.80;99.90;;;;;;5013320;28;20696;-92
2022/06/05 07:25:50;;;;;;;7.77;3.93;;;16.90;99.90;;;;;;5030728;28;20258;-92
2022/06/05 07:28:17;;;;;;;6.10;3.70;;;16.90;99.90;;;;;;5030432;28;20674;-95
2022/06/05 07:30:48;;;;;;;6.97;3.73;;;17.10;99.90;;;;;;5029580;28;20203;-96
2022/06/05 07:33:15;;;;;;;5.83;3.70;;;17.20;99.90;;;;;;5030680;28;20241;-95
2022/06/05 07:35:41;;;;;;;6.47;3.90;;;17.20;99.90;;;;;;5034350;28;20211;-96
2022/06/05 07:38:08;;;;;;;11.20;4.37;;;17.30;99.90;;;;;;4992497;28;1125302;-95
2022/06/05 07:40:41;;;;;;;11.40;5.13;;;17.30;99.90;;;;;;5030925;28;20182;-93
2022/06/05 07:43:09;;;;;;;12.70;4.53;;;17.30;99.90;;;;;;5030163;28;20218;-94
2022/06/05 07:45:35;;;;;;;6.97;4.93;;;17.30;99.90;;;;;;5013587;28;20524;-93
2022/06/05 07:48:01;;;;;;;8.10;4.07;;;17.40;99.90;;;;;;4997400;28;20570;-96
2022/06/05 07:50:27;;;;;;;8.87;5.13;;;17.30;99.90;;;;;;4997263;28;20294;-92
2022/06/05 07:55:37;;;;;;;15.37;4.77;;;17.70;99.90;;;;;;5017270;28;20167;-95
2022/06/05 07:58:02;;;;;;;8.87;4.60;;;17.80;99.90;;;;;;4996767;28;20272;-90
2022/06/05 08:00:29;;;;;;;7.83;4.83;;;17.90;99.90;;;;;;5029623;28;20682;-94
2022/06/05 08:02:54;;;;;;;8.10;4.50;;;18.20;99.90;;;;;;5030770;28;20207;-92
2022/06/05 08:05:20;;;;;;;10.23;5.67;;;18.50;99.90;;;;;;5013232;28;20313;-91
2022/06/05 08:07:46;;;;;;;9.20;4.87;;;18.50;99.90;;;;;;5013448;28;20199;-93
2022/06/05 08:10:12;;;;;;;9.40;5.23;;;18.70;99.90;;;;;;4996465;28;20245;-88
2022/06/05 08:12:37;;;;;;;6.73;4.27;;;18.90;99.90;;;;;;4996345;28;20215;-90
2022/06/05 08:15:12;;;;;;;9.50;4.43;;;19.10;99.90;;;;;;5028964;28;20210;-90
2022/06/05 08:17:38;;;;;;;8.07;5.33;;;19.10;99.90;;;;;;5028851;28;20285;-90
2022/06/05 08:20:06;;;;;;;14.03;5.03;;;19.20;99.90;;;;;;5011741;28;20670;-93
2022/06/05 08:22:33;;;;;;;7.20;4.90;;;19.50;99.90;;;;;;5012125;28;20183;-94
2022/06/05 08:24:58;;;;;;;6.07;4.30;;;19.60;99.90;;;;;;5029242;28;20314;-91
2022/06/05 08:27:26;;;;;;;9.17;5.77;;;19.60;99.90;;;;;;5012408;28;20291;-94
2022/06/05 08:29:55;;;;;;;6.07;3.87;;;19.30;99.90;;;;;;5012025;28;20226;-91
2022/06/05 08:32:22;;;;;;;6.77;4.70;;;19.30;99.90;;;;;;5029362;28;20250;-94
2022/06/05 08:34:48;;;;;;;7.37;5.10;;;19.40;99.90;;;;;;5012976;28;20181;-92
2022/06/05 08:43:21;;;;;;;7.03;4.17;;;19.50;99.90;;;;;;5028808;28;20222;-94
2022/06/05 08:45:54;;;;;;;6.27;4.57;;;19.60;99.90;;;;;;5027846;28;20218;-95
2022/06/05 08:48:29;;;;;;;10.43;5.30;;;19.70;99.90;;;;;;5028399;28;20218;-92
2022/06/05 08:51:00;;;;;;;6.03;4.27;;;19.80;99.90;;;;;;5029394;28;20245;-92
2022/06/05 08:53:57;;;;;;;7.47;4.90;;;19.90;99.90;;;;;;5029188;28;20671;-92
2022/06/05 08:56:32;;;;;;;11.33;5.67;;;19.90;99.90;;;;;;5029074;28;20264;-92
2022/06/05 08:59:13;;;;;;;9.60;5.07;;;19.80;99.90;;;;;;5027620;28;20192;-91
2022/06/05 09:02:01;;;;;;;8.10;4.47;;;19.50;99.90;;;;;;5028542;28;20253;-91
2022/06/05 09:04:53;;;;;;;6.63;4.70;;;19.60;99.90;;;;;;5017236;28;20206;-93
2022/06/05 09:07:25;;;;;;;10.90;5.73;;;19.50;99.90;;;;;;5028469;28;20195;-94
2022/06/05 09:10:15;;;;;;;7.87;4.77;;;19.50;99.90;;;;;;5027888;28;20273;-94
2022/06/05 09:12:46;;;;;;;6.90;4.53;;;19.50;99.90;;;;;;5028382;28;20225;-93
2022/06/05 09:15:24;;;;;;;8.73;4.60;;;19.70;99.90;;;;;;5027582;28;20244;-92
2022/06/05 09:17:58;;;;;;;8.13;5.10;;;19.70;99.90;;;;;;5028931;28;20313;-93
2022/06/05 09:20:45;;;;;;;11.43;5.13;;;19.50;99.90;;;;;;5030082;28;20333;-94
2022/06/05 09:23:26;;;;;;;7.40;5.00;;;19.60;99.90;;;;;;5029221;28;20222;-92
2022/06/05 09:26:19;;;;;;;9.50;5.13;;;19.60;99.90;;;;;;5029925;28;20173;-93
2022/06/05 09:28:57;;;;;;;6.83;4.87;;;19.60;99.90;;;;;;5029106;28;20209;-90
2022/06/05 09:31:38;;;;;;;7.20;4.67;;;19.80;99.90;;;;;;5029474;28;20202;-91
2022/06/05 09:34:14;;;;;;;8.70;5.20;;;20.00;99.90;;;;;;5027773;28;20679;-92
2022/06/05 09:36:44;;;;;;;7.07;4.90;;;20.20;99.90;;;;;;5029445;28;20210;-90
2022/06/05 09:39:29;;;;;;;9.57;4.83;;;19.90;99.90;;;;;;5031524;28;20234;-91
2022/06/05 09:42:17;;;;;;;8.57;4.77;;;20.00;99.90;;;;;;5029952;28;20337;-96
2022/06/05 09:44:50;;;;;;;7.33;5.23;;;20.20;99.90;;;;;;5030122;28;20209;-96
2022/06/05 09:47:39;;;;;;;10.07;4.97;;;20.10;99.90;;;;;;5030601;28;20219;-96
2022/06/05 09:50:21;;;;;;;8.53;5.43;;;20.50;99.90;;;;;;5030256;28;20596;-95
2022/06/05 09:52:49;;;;;;;6.73;4.47;;;20.70;99.90;;;;;;5028304;28;20297;-96
2022/06/05 09:55:36;;;;;;;5.03;3.80;;;20.70;99.90;;;;;;5028337;28;20337;-95
2022/06/05 09:58:27;;;;;;;9.43;4.80;;;20.70;99.90;;;;;;5027881;28;20226;-95
2022/06/05 10:01:18;;;;;;;10.60;4.90;;;20.80;99.90;;;;;;5028689;28;20211;-95
2022/06/05 10:03:43;;;;;;;7.97;4.83;;;21.00;99.90;;;;;;5027754;28;20679;-92
2022/06/05 10:06:38;;;;;;;6.37;4.60;;;21.10;99.90;;;;;;4998154;28;20185;-92
2022/06/05 10:09:11;;;;;;;6.27;5.07;;;21.10;99.90;;;;;;5024874;28;20236;-90
2022/06/05 10:11:42;;;;;;;7.60;5.43;;;21.00;99.90;;;;;;5027347;28;20218;-95
2022/06/05 10:14:36;;;;;;;12.83;5.37;;;20.70;99.90;;;;;;5027486;28;20246;-94
2022/06/05 10:17:26;;;;;;;9.93;5.77;;;20.50;99.90;;;;;;5027337;28;20559;-93
2022/06/05 10:20:17;;;;;;;9.87;6.43;;;20.40;99.90;;;;;;5028362;28;20276;-94
2022/06/05 10:23:05;;;;;;;10.50;6.20;;;20.40;99.90;;;;;;5030753;28;20206;-91
2022/06/05 10:25:53;;;;;;;6.93;5.23;;;20.40;99.90;;;;;;5031221;28;20222;-93
2022/06/05 10:28:23;;;;;;;7.70;5.77;;;20.40;99.90;;;;;;5024637;28;20227;-93
2022/06/05 10:31:01;;;;;;;8.70;5.37;;;20.40;99.90;;;;;;5030762;28;20211;-89
2022/06/05 10:33:43;;;;;;;9.57;5.50;;;20.50;99.90;;;;;;5030457;28;20228;-93
2022/06/05 10:36:15;;;;;;;9.13;5.43;;;20.30;99.90;;;;;;5033017;28;20234;-91
2022/06/05 10:39:00;;;;;;;8.70;5.27;;;20.40;99.90;;;;;;5030165;28;20249;-92
2022/06/05 10:41:47;;;;;;;7.63;4.60;;;20.20;99.90;;;;;;5030587;28;20636;-92
2022/06/05 10:44:31;;;;;;;9.63;5.30;;;20.20;99.90;;;;;;5030573;28;20323;-93
2022/06/05 10:47:11;;;;;;;10.33;5.00;;;20.10;99.90;;;;;;5030344;28;20492;-94
2022/06/05 10:50:04;;;;;;;15.73;5.70;;;20.20;99.90;;;;;;5031164;28;20503;-93
2022/06/05 10:52:58;;;;;;;7.57;5.13;;;20.20;99.90;;;;;;5030553;28;20206;-94
2022/06/05 10:55:51;;;;;;;10.17;6.13;;;20.20;99.90;;;;;;5030218;28;20284;-93
2022/06/05 10:58:21;;;;;;;9.87;5.33;;;20.10;99.90;;;;;;5030360;28;20210;-93
2022/06/05 11:00:50;;;;;;;19.37;6.83;;;20.00;99.90;;;;;;5030181;28;20224;-93
2022/06/05 11:03:30;;;;;;;11.37;5.80;;;20.00;99.90;;;;;;5029910;28;20218;-93
2022/06/05 11:06:31;;;;;;;10.33;6.10;;;20.20;99.90;;;;;;5029909;28;20260;-91
2022/06/05 11:09:03;;;;;;;10.47;5.80;;;20.40;99.90;;;;;;5029386;28;20222;-93
2022/06/05 11:14:51;;;;;;;7.97;4.80;;;20.40;99.90;;;;;;5030930;28;20214;-94
2022/06/05 11:17:30;;;;;;;9.77;5.13;;;20.40;99.90;;;;;;5030349;28;20222;-92
2022/06/05 11:20:07;;;;;;;9.73;6.03;;;20.60;99.90;;;;;;5029714;28;20265;-94
2022/06/05 11:22:37;;;;;;;13.37;5.47;;;20.70;99.90;;;;;;5031817;28;20193;-92
2022/06/05 11:25:22;;;;;;;8.30;6.03;;;20.60;99.90;;;;;;5029876;28;20222;-93
2022/06/05 11:27:54;;;;;;;11.23;5.10;;;20.40;99.90;;;;;;5029808;28;20663;-93
2022/06/05 11:30:45;;;;;;;11.07;5.80;;;20.40;99.90;;;;;;5029520;28;20242;-92
2022/06/05 11:33:21;;;;;;;8.77;5.23;;;20.30;99.90;;;;;;5028405;28;20579;-90
2022/06/05 11:35:52;;;;;;;9.40;5.30;;;20.30;99.90;;;;;;5030646;28;20218;-91
2022/06/05 11:38:40;;;;;;;12.50;6.10;;;20.20;99.90;;;;;;5029269;28;20230;-96
2022/06/05 11:41:25;;;;;;;8.20;5.60;;;20.50;99.90;;;;;;5029211;28;20263;-92
2022/06/05 11:44:11;;;;;;;9.70;6.13;;;20.50;99.90;;;;;;5030373;28;20167;-93
2022/06/05 11:47:03;;;;;;;11.37;5.80;;;20.50;99.90;;;;;;5029705;28;20198;-93
2022/06/05 11:49:57;;;;;;;8.50;5.23;;;20.70;99.90;;;;;;5029930;28;20270;-93
2022/06/05 11:52:38;;;;;;;11.57;5.70;;;20.60;99.90;;;;;;5029951;28;20203;-93
2022/06/05 11:55:13;;;;;;;9.40;5.47;;;20.60;99.90;;;;;;5029305;28;20671;-94
2022/06/05 11:57:48;;;;;;;10.80;6.07;;;20.50;99.90;;;;;;5029367;28;20283;-92
2022/06/05 12:00:28;;;;;;;8.00;5.57;;;20.30;99.90;;;;;;5030401;28;20210;-92
2022/06/05 12:03:13;;;;;;;8.77;5.03;;;20.20;99.90;;;;;;5029277;28;20245;-94
2022/06/05 12:05:42;;;;;;;9.97;5.70;;;20.20;99.90;;;;;;5029103;28;20248;-92
2022/06/05 12:08:18;;;;;;;6.33;4.87;;;20.10;99.90;;;;;;5028536;28;20202;-94
2022/06/05 12:11:13;;;;;;;8.40;5.07;;;20.10;99.90;;;;;;5029922;28;20182;-93
2022/06/05 12:14:10;;;;;;;9.27;6.43;;;20.00;99.90;;;;;;5009256;28;20203;-94
2022/06/05 12:16:44;;;;;;;14.17;5.77;;;20.00;99.90;;;;;;5030515;28;20658;-95
2022/06/05 12:19:29;;;;;;;9.23;6.13;;;20.20;99.90;;;;;;5030204;28;20279;-94
2022/06/05 12:22:08;;;;;;;9.30;5.97;;;20.20;99.90;;;;;;5029349;28;20218;-93
2022/06/05 12:24:55;;;;;;;10.40;6.17;;;20.00;99.90;;;;;;5029658;28;20206;-94
2022/06/05 12:27:21;;;;;;;11.30;5.67;;;20.00;99.90;;;;;;5029372;28;20237;-96
2022/06/05 12:30:13;;;;;;;10.53;5.77;;;20.00;99.90;;;;;;5029307;28;20214;-94
2022/06/05 12:32:39;;;;;;;14.23;6.17;;;20.00;99.90;;;;;;5030083;28;20297;-95
2022/06/05 12:35:05;;;;;;;17.33;7.40;;;20.20;99.90;;;;;;5030148;28;20226;-93
2022/06/05 12:37:36;;;;;;;13.37;6.80;;;20.40;99.90;;;;;;5029979;28;20373;-96
2022/06/05 12:40:04;;;;;;;14.53;6.70;;;20.50;99.90;;;;;;5030291;28;20266;-96
2022/06/05 12:42:39;;;;;;;11.03;6.83;;;20.30;99.90;;;;;;5029066;28;20657;-94
2022/06/05 12:45:16;;;;;;;11.67;6.33;;;20.10;99.90;;;;;;5031058;28;20569;-93
2022/06/05 12:47:56;;;;;;;14.43;6.50;;;20.00;99.90;;;;;;5030087;28;20220;-95
2022/06/05 12:50:37;;;;;;;8.70;6.50;;;20.10;99.90;;;;;;5030010;28;20210;-94
2022/06/05 12:53:30;;;;;;;10.83;5.80;;;20.00;99.90;;;;;;5029012;28;20256;-95
2022/06/05 12:56:15;;;;;;;14.53;6.77;;;20.10;99.90;;;;;;5029896;28;20171;-94
2022/06/05 12:59:00;;;;;;;11.47;6.63;;;20.30;99.90;;;;;;5030247;28;20322;-93
2022/06/05 13:01:37;;;;;;;11.60;7.23;;;20.30;99.90;;;;;;5029846;28;20195;-92
2022/06/05 13:04:06;;;;;;;14.87;6.87;;;20.40;99.90;;;;;;5029724;28;20213;-90
2022/06/05 13:06:43;;;;;;;10.50;6.23;;;20.50;99.90;;;;;;5027755;28;20309;-93
2022/06/05 13:09:19;;;;;;;15.37;7.87;;;20.40;99.90;;;;;;5027795;28;20249;-92
2022/06/05 13:11:55;;;;;;;13.10;6.87;;;20.30;99.90;;;;;;5028706;28;20299;-93
2022/06/05 13:14:45;;;;;;;13.77;6.90;;;20.00;99.90;;;;;;5028000;28;20206;-93
2022/06/05 13:17:11;;;;;;;12.77;6.70;;;20.00;99.90;;;;;;5028313;28;20549;-92
2022/06/05 13:19:52;;;;;;;22.10;8.23;;;20.10;99.90;;;;;;5028393;28;20182;-93
2022/06/05 13:22:43;;;;;;;12.70;6.73;;;20.00;99.90;;;;;;5028326;28;20194;-94
2022/06/05 13:25:49;;;;;;;10.70;5.77;;;20.00;99.90;;;;;;5028272;28;20223;-92
2022/06/05 13:28:40;;;;;;;10.83;6.33;;;20.10;99.90;;;;;;5027777;28;20237;-93
2022/06/05 13:31:20;;;;;;;15.23;7.00;;;20.10;99.90;;;;;;5029031;28;20218;-93